createdAt,value
2022-08-01T00:00:10.920Z,0
2022-08-01T00:05:36.311Z,0
2022-08-01T00:11:02.841Z,0
2022-08-01T00:16:35.986Z,0
2022-08-01T00:22:26.461Z,5.9
2022-08-01T00:28:04.001Z,4.8
2022-08-01T00:33:34.178Z,5.9
2022-08-01T00:38:58.476Z,4.8
2022-08-01T00:44:58.045Z,0
2022-08-01T00:50:23.176Z,0
2022-08-01T00:55:46.049Z,0
2022-08-01T01:01:46.658Z,0
2022-08-01T01:07:01.115Z,0
2022-08-01T01:12:52.672Z,0
2022-08-01T01:18:24.890Z,0
2022-08-01T01:23:54.554Z,0
2022-08-01T01:29:59.098Z,0
2022-08-01T01:35:18.527Z,0
2022-08-01T01:40:28.814Z,4.8
2022-08-01T01:46:23.720Z,0
2022-08-01T01:52:08.439Z,0
2022-08-01T01:57:33.937Z,0
2022-08-01T02:03:13.179Z,0
2022-08-01T02:08:33.360Z,0
2022-08-01T02:14:00.411Z,0
2022-08-01T02:19:37.961Z,0
2022-08-01T02:25:17.941Z,0
2022-08-01T02:31:09.690Z,0
2022-08-01T02:36:31.504Z,0
2022-08-01T02:42:12.521Z,0
2022-08-01T02:47:32.087Z,0
2022-08-01T02:53:22.193Z,0
2022-08-01T02:58:40.356Z,0
2022-08-01T03:04:17.643Z,0
2022-08-01T03:10:04.629Z,0
2022-08-01T03:15:31.136Z,0
2022-08-01T03:21:08.586Z,0
2022-08-01T03:26:54.351Z,0
2022-08-01T03:32:27.176Z,0
2022-08-01T03:38:18.790Z,0
2022-08-01T03:43:40.102Z,0
2022-08-01T03:49:18.677Z,0
2022-08-01T03:54:52.572Z,0
2022-08-01T04:00:22.051Z,0
2022-08-01T04:05:54.399Z,0
2022-08-01T04:11:39.613Z,0
2022-08-01T04:17:08.141Z,0
2022-08-01T04:22:41.548Z,0
2022-08-01T04:28:13.625Z,0
2022-08-01T04:33:34.255Z,0
2022-08-01T04:39:34.263Z,0
2022-08-01T04:44:50.025Z,0
2022-08-01T04:50:33.019Z,0
2022-08-01T04:56:08.978Z,0
2022-08-01T05:01:54.231Z,0
2022-08-01T05:07:09.836Z,0
2022-08-01T05:13:04.192Z,0
2022-08-01T05:18:36.100Z,0
2022-08-01T05:24:00.735Z,0
2022-08-01T05:29:30.080Z,0
2022-08-01T05:35:48.472Z,0
2022-08-01T05:40:39.294Z,0
2022-08-01T05:46:19.186Z,0
2022-08-01T05:52:06.076Z,0
2022-08-01T05:57:47.278Z,0
2022-08-01T06:03:22.701Z,0
2022-08-01T06:08:51.627Z,0
2022-08-01T06:14:33.571Z,0
2022-08-01T06:19:56.657Z,0
2022-08-01T06:25:35.160Z,0
2022-08-01T06:31:18.753Z,0
2022-08-01T06:36:46.745Z,0
2022-08-01T06:42:18.806Z,0
2022-08-01T06:47:58.532Z,0
2022-08-01T06:53:33.757Z,0
2022-08-01T06:59:22.074Z,0
2022-08-01T07:04:56.164Z,0
2022-08-01T07:10:12.202Z,0
2022-08-01T07:15:54.361Z,0
2022-08-01T07:21:51.793Z,0
2022-08-01T07:27:21.487Z,0
2022-08-01T07:32:58.110Z,0
2022-08-01T07:38:26.652Z,4.8
2022-08-01T07:43:58.748Z,4.8
2022-08-01T07:49:41.241Z,4.8
2022-08-01T07:55:36.775Z,5.9
2022-08-01T08:00:47.607Z,3.6
2022-08-01T08:06:50.760Z,7.2
2022-08-01T08:12:28.617Z,4.8
2022-08-01T08:17:55.099Z,2.4
2022-08-01T08:23:46.741Z,4.8
2022-08-01T08:29:05.670Z,3.6
2022-08-01T08:34:40.512Z,4.8
2022-08-01T08:40:36.127Z,4.8
2022-08-01T08:46:06.487Z,3.6
2022-08-01T08:51:51.981Z,5.9
2022-08-01T08:57:34.571Z,4.8
2022-08-01T09:03:04.317Z,2.4
2022-08-01T09:08:41.026Z,3.6
2022-08-01T09:14:21.137Z,5.9
2022-08-01T09:20:04.076Z,4.8
2022-08-01T09:25:29.717Z,4.8
2022-08-01T09:31:06.036Z,3.6
2022-08-01T09:36:52.004Z,5.9
2022-08-01T09:42:50.619Z,5.9
2022-08-01T09:48:22.577Z,9.6
2022-08-01T09:53:47.402Z,7.2
2022-08-01T09:59:52.815Z,4.8
2022-08-01T10:05:26.807Z,4.8
2022-08-01T10:10:48.218Z,5.9
2022-08-01T10:16:52.832Z,8.4
2022-08-01T10:22:17.390Z,7.2
2022-08-01T10:27:53.410Z,9.6
2022-08-01T10:33:52.069Z,3.6
2022-08-01T10:39:06.730Z,7.2
2022-08-01T10:44:51.376Z,5.9
2022-08-01T10:50:30.342Z,4.8
2022-08-01T10:56:20.815Z,8.4
2022-08-01T11:01:46.199Z,7.2
2022-08-01T11:07:36.912Z,5.9
2022-08-01T11:13:17.630Z,3.6
2022-08-01T11:18:57.415Z,5.9
2022-08-01T11:24:39.782Z,5.9
2022-08-01T11:30:14.558Z,4.8
2022-08-01T11:36:10.311Z,3.6
2022-08-01T11:41:37.874Z,7.2
2022-08-01T11:47:14.441Z,9.6
2022-08-01T11:53:11.401Z,5.9
2022-08-01T11:58:37.200Z,5.9
2022-08-01T12:04:08.115Z,5.9
2022-08-01T12:10:12.183Z,7.2
2022-08-01T12:15:42.637Z,5.9
2022-08-01T12:21:29.224Z,4.8
2022-08-01T12:26:54.292Z,8.4
2022-08-01T12:32:47.574Z,5.9
2022-08-01T12:38:27.456Z,7.2
2022-08-01T12:44:12.880Z,5.9
2022-08-01T12:49:42.485Z,9.6
2022-08-01T12:55:16.068Z,4.8
2022-08-01T13:01:23.886Z,9.6
2022-08-01T13:07:00.652Z,8.4
2022-08-01T13:12:20.156Z,7.2
2022-08-01T13:18:14.204Z,14.4
2022-08-01T13:24:02.214Z,10.7
2022-08-01T13:29:42.813Z,10.7
2022-08-01T13:35:03.095Z,7.2
2022-08-01T13:40:48.479Z,5.9
2022-08-01T13:46:33.917Z,4.8
2022-08-01T13:52:11.600Z,8.4
2022-08-01T13:57:39.049Z,4.8
2022-08-01T14:03:09.613Z,8.4
2022-08-01T14:09:17.619Z,5.9
2022-08-01T14:14:56.085Z,4.8
2022-08-01T14:20:29.311Z,2.4
2022-08-01T14:26:06.972Z,2.4
2022-08-01T14:31:43.279Z,8.4
2022-08-01T14:37:17.446Z,7.2
2022-08-01T14:42:51.620Z,9.6
2022-08-01T14:48:45.974Z,4.8
2022-08-01T14:54:09.473Z,7.2
2022-08-01T14:59:53.883Z,10.7
2022-08-01T15:05:32.576Z,9.6
2022-08-01T15:11:17.503Z,4.8
2022-08-01T15:17:04.959Z,7.2
2022-08-01T15:22:36.286Z,13.2
2022-08-01T15:28:07.344Z,14.4
2022-08-01T15:34:02.879Z,14.4
2022-08-01T15:39:30.843Z,11.9
2022-08-01T15:44:56.205Z,11.9
2022-08-01T15:50:39.059Z,14.4
2022-08-01T15:56:23.263Z,10.7
2022-08-01T16:01:51.122Z,13.2
2022-08-01T16:07:56.921Z,14.4
2022-08-01T16:13:24.050Z,19.2
2022-08-01T16:19:19.286Z,14.4
2022-08-01T16:24:38.227Z,14.4
2022-08-01T16:30:16.880Z,14.4
2022-08-01T16:35:57.469Z,18
2022-08-01T16:41:44.667Z,18
2022-08-01T16:47:00.887Z,14.4
2022-08-01T16:52:41.860Z,13.2
2022-08-01T16:58:35.384Z,10.7
2022-08-01T17:03:52.802Z,9.6
2022-08-01T17:09:42.882Z,15.6
2022-08-01T17:15:07.219Z,13.2
2022-08-01T17:21:06.604Z,16.8
2022-08-01T17:26:21.513Z,19.2
2022-08-01T17:32:08.938Z,13.2
2022-08-01T17:37:47.226Z,11.9
2022-08-01T17:43:40.442Z,10.7
2022-08-01T17:49:12.149Z,9.6
2022-08-01T17:54:36.422Z,15.6
2022-08-01T18:00:32.716Z,16.8
2022-08-01T18:06:01.040Z,13.2
2022-08-01T18:11:23.202Z,22.8
2022-08-01T18:17:11.686Z,18
2022-08-01T18:22:52.575Z,16.8
2022-08-01T18:28:39.500Z,10.7
2022-08-01T18:34:18.832Z,13.2
2022-08-01T18:39:39.028Z,10.7
2022-08-01T18:51:11.011Z,9.6
2022-08-01T18:56:45.012Z,7.2
2022-08-01T19:01:59.658Z,14.4
2022-08-01T19:08:05.684Z,9.6
2022-08-01T19:13:31.820Z,10.7
2022-08-01T19:19:12.287Z,9.6
2022-08-01T19:30:13.497Z,7.2
2022-08-01T19:35:48.815Z,8.4
2022-08-01T19:41:25.904Z,5.9
2022-08-01T19:47:20.429Z,8.4
2022-08-01T19:52:46.366Z,0
2022-08-01T19:58:28.890Z,0
2022-08-01T20:04:07.709Z,4.8
2022-08-01T20:09:45.216Z,2.4
2022-08-01T20:15:04.765Z,0
2022-08-01T20:20:43.019Z,0
2022-08-01T20:26:22.228Z,0
2022-08-01T20:32:06.049Z,0
2022-08-01T20:38:04.344Z,0
2022-08-01T20:43:18.060Z,0
2022-08-01T20:48:41.498Z,0
2022-08-01T20:54:35.995Z,0
2022-08-01T21:00:08.146Z,7.2
2022-08-01T21:05:55.431Z,10.7
2022-08-01T21:11:28.258Z,9.6
2022-08-01T21:16:58.652Z,10.7
2022-08-01T21:22:42.712Z,11.9
2022-08-01T21:27:57.958Z,10.7
2022-08-01T21:34:03.141Z,7.2
2022-08-01T21:39:09.665Z,8.4
2022-08-01T21:45:13.096Z,3.6
2022-08-01T21:50:42.334Z,0
2022-08-01T21:55:58.394Z,2.4
2022-08-01T22:01:51.490Z,5.9
2022-08-01T22:07:15.170Z,10.7
2022-08-01T22:12:55.232Z,13.2
2022-08-01T22:18:24.159Z,16.8
2022-08-01T22:24:09.191Z,15.6
2022-08-01T22:29:59.944Z,14.4
2022-08-01T22:35:36.467Z,11.9
2022-08-01T22:41:18.720Z,8.4
2022-08-01T22:46:39.311Z,3.6
2022-08-01T22:52:11.349Z,4.8
2022-08-01T22:57:51.633Z,5.9
2022-08-01T23:03:18.539Z,9.6
2022-08-01T23:09:03.864Z,10.7
2022-08-01T23:14:35.643Z,9.6
2022-08-01T23:20:28.956Z,3.6
2022-08-01T23:25:45.310Z,2.4
2022-08-01T23:31:20.177Z,0
2022-08-01T23:37:19.415Z,0
2022-08-01T23:42:49.181Z,7.2
2022-08-01T23:48:16.468Z,0
2022-08-01T23:54:00.322Z,0
2022-08-01T23:59:22.735Z,5.9
